Time;durP1;ratioP1;P1;durP2;ratioP2;P2;SDS_P1;SDS_P2;PMS_P1;PMS_P2;Temp;Humidity;BMP_temperature;BMP_pressure;BME280_temperature;BME280_humidity;BME280_pressure;Samples;Min_cycle;Max_cycle;Signal;HPM_P1;HPM_P2
2023/02/02 00:01:39;;;;;;;12.10;7.40;;;0.10;99.90;;;;;;5013611;28;20022;-78
2023/02/02 00:04:05;;;;;;;9.05;7.00;;;0.10;99.90;;;;;;5011781;28;20057;-81
2023/02/02 00:06:31;;;;;;;11.90;7.45;;;0.10;99.90;;;;;;5012009;28;20120;-78
2023/02/02 00:08:59;;;;;;;12.07;7.25;;;0.10;99.90;;;;;;5012413;28;20045;-78
2023/02/02 00:11:25;;;;;;;13.80;6.68;;;0.10;99.90;;;;;;5012020;28;20022;-81
2023/02/02 00:13:51;;;;;;;15.98;7.25;;;0.00;99.90;;;;;;5012886;28;20033;-81
2023/02/02 00:16:25;;;;;;;5.95;5.05;;;0.00;99.90;;;;;;5013187;28;20026;-78
2023/02/02 00:18:59;;;;;;;7.78;5.30;;;-0.10;99.90;;;;;;5012886;28;20025;-81
2023/02/02 00:21:26;;;;;;;5.55;5.03;;;-0.10;99.90;;;;;;5013368;28;20079;-81
2023/02/02 00:23:52;;;;;;;7.00;4.97;;;-0.10;99.90;;;;;;5010100;28;20025;-81
2023/02/02 00:26:18;;;;;;;5.70;4.45;;;-0.10;99.90;;;;;;5011691;28;20037;-77
2023/02/02 00:28:43;;;;;;;5.50;4.63;;;-0.10;99.90;;;;;;5013030;28;20078;-79
2023/02/02 00:31:09;;;;;;;9.73;5.22;;;-0.10;99.90;;;;;;5024264;28;20045;-78
2023/02/02 00:33:35;;;;;;;88.95;29.45;;;-0.20;99.90;;;;;;5031625;28;20490;-81
2023/02/02 00:36:00;;;;;;;31.40;10.23;;;-0.10;99.90;;;;;;5031993;28;20392;-78
2023/02/02 00:38:26;;;;;;;18.70;9.15;;;-0.20;99.90;;;;;;5031652;28;20080;-82
2023/02/02 00:40:52;;;;;;;10.65;6.00;;;-0.10;99.90;;;;;;5033297;28;20025;-81
2023/02/02 00:43:18;;;;;;;10.23;5.78;;;-0.10;99.90;;;;;;5031737;28;20039;-81
2023/02/02 00:45:43;;;;;;;13.52;6.75;;;-0.10;99.90;;;;;;5031900;28;20021;-82
2023/02/02 00:48:09;;;;;;;18.85;7.00;;;-0.10;99.90;;;;;;5031738;28;20084;-78
2023/02/02 00:50:35;;;;;;;13.38;6.10;;;-0.10;99.90;;;;;;5031882;28;20112;-82
2023/02/02 00:53:02;;;;;;;55.30;21.25;;;-0.10;99.90;;;;;;5031672;28;20082;-78
2023/02/02 00:55:27;;;;;;;5.88;4.47;;;-0.10;99.90;;;;;;5031962;28;20029;-82
2023/02/02 00:57:53;;;;;;;18.05;8.05;;;-0.20;99.90;;;;;;5031629;28;20022;-78
2023/02/02 01:00:25;;;;;;;4.03;3.08;;;-0.10;99.90;;;;;;5031840;28;20045;-82
2023/02/02 01:02:52;;;;;;;2.70;2.50;;;-0.20;99.90;;;;;;5031972;28;20022;-82
2023/02/02 01:05:19;;;;;;;28.60;10.82;;;-0.20;99.90;;;;;;5031691;28;20049;-78
2023/02/02 01:07:45;;;;;;;32.03;12.93;;;-0.20;99.90;;;;;;5031536;28;20029;-78
2023/02/02 01:10:17;;;;;;;7.70;3.85;;;-0.10;99.90;;;;;;5031780;28;20029;-82
2023/02/02 01:12:43;;;;;;;2.55;2.35;;;-0.20;99.90;;;;;;5031969;28;20026;-82
2023/02/02 01:15:10;;;;;;;3.47;2.92;;;-0.20;99.90;;;;;;5031387;28;20430;-82
2023/02/02 01:17:36;;;;;;;9.15;4.45;;;-0.10;99.90;;;;;;5031797;28;20424;-82
2023/02/02 01:20:03;;;;;;;12.25;6.45;;;-0.10;99.90;;;;;;5032658;28;20061;-78
2023/02/02 01:22:28;;;;;;;14.20;6.90;;;-0.10;99.90;;;;;;5032818;28;20025;-82
2023/02/02 01:24:54;;;;;;;5.35;3.45;;;-0.10;99.90;;;;;;5031382;28;20056;-82
2023/02/02 01:27:19;;;;;;;2.92;2.67;;;-0.10;99.90;;;;;;5031564;28;20549;-78
2023/02/02 01:29:45;;;;;;;6.70;3.53;;;-0.10;99.90;;;;;;5031367;28;20025;-79
2023/02/02 01:32:11;;;;;;;20.70;9.18;;;-0.10;99.90;;;;;;5031318;28;20048;-78
2023/02/02 01:34:40;;;;;;;5.43;3.55;;;-0.10;99.90;;;;;;5031167;28;20425;-82
2023/02/02 01:37:06;;;;;;;6.65;3.10;;;0.00;99.90;;;;;;5036159;28;20489;-81
2023/02/02 01:39:32;;;;;;;17.92;9.35;;;-0.10;99.90;;;;;;5035189;28;20105;-81
2023/02/02 01:41:58;;;;;;;9.98;5.97;;;0.00;99.90;;;;;;5035093;28;20156;-78
2023/02/02 01:44:51;;;;;;;3.80;2.55;;;0.00;99.90;;;;;;5034885;28;20059;-77
2023/02/02 01:47:25;;;;;;;10.50;4.97;;;-0.10;99.90;;;;;;5035004;28;20414;-81
2023/02/02 01:49:54;;;;;;;8.20;5.22;;;0.00;99.90;;;;;;5036219;28;20033;-81
2023/02/02 01:52:22;;;;;;;11.40;6.35;;;0.00;99.90;;;;;;5035156;28;20025;-77
2023/02/02 01:54:52;;;;;;;15.30;7.18;;;0.00;99.90;;;;;;5034668;28;20040;-82
2023/02/02 01:57:53;;;;;;;21.17;10.57;;;0.00;99.90;;;;;;5034951;28;20033;-81
2023/02/02 02:00:26;;;;;;;4.22;2.90;;;0.00;99.90;;;;;;5027571;28;20116;-78
2023/02/02 02:02:54;;;;;;;4.63;3.78;;;0.00;99.90;;;;;;5035082;28;20021;-81
2023/02/02 02:05:26;;;;;;;7.47;4.13;;;0.00;99.90;;;;;;5035974;28;20029;-78
2023/02/02 02:07:57;;;;;;;4.15;3.40;;;0.00;99.90;;;;;;5036285;28;20040;-78
2023/02/02 02:10:23;;;;;;;11.30;5.85;;;0.00;99.90;;;;;;5035909;28;20045;-78
2023/02/02 02:12:48;;;;;;;4.82;3.20;;;0.10;99.90;;;;;;5036191;28;20021;-79
2023/02/02 02:18:27;;;;;;;5.00;3.25;;;0.00;99.90;;;;;;5024153;28;20116;-78
2023/02/02 02:27:09;;;;;;;7.30;4.68;;;0.10;99.90;;;;;;5036026;28;20529;-78
2023/02/02 02:30:09;;;;;;;6.50;4.20;;;0.10;99.90;;;;;;5034194;28;20491;-82
2023/02/02 02:32:46;;;;;;;10.00;5.38;;;0.10;99.90;;;;;;5034402;28;20093;-82
2023/02/02 02:35:43;;;;;;;3.97;3.30;;;0.10;99.90;;;;;;5034136;28;20025;-78
2023/02/02 02:38:39;;;;;;;9.10;4.53;;;0.10;99.90;;;;;;5034317;28;20018;-78
2023/02/02 02:41:15;;;;;;;8.82;5.68;;;0.10;99.90;;;;;;5034302;28;20026;-82
2023/02/02 02:43:45;;;;;;;5.07;3.80;;;0.10;99.90;;;;;;5033916;28;20052;-78
2023/02/02 02:46:12;;;;;;;6.22;3.97;;;0.10;99.90;;;;;;5034149;28;20053;-78
2023/02/02 02:48:38;;;;;;;11.55;5.88;;;0.10;99.90;;;;;;5034419;28;20026;-78
2023/02/02 02:51:28;;;;;;;8.75;4.85;;;0.10;99.90;;;;;;5034335;28;20032;-82
2023/02/02 02:53:54;;;;;;;9.63;4.28;;;0.10;99.90;;;;;;5033697;28;20425;-82
2023/02/02 02:56:35;;;;;;;11.82;5.68;;;0.10;99.90;;;;;;5034080;28;20526;-82
2023/02/02 02:59:05;;;;;;;8.95;5.00;;;0.10;99.90;;;;;;5034953;28;20443;-78
2023/02/02 03:01:39;;;;;;;12.25;6.22;;;0.10;99.90;;;;;;5035195;28;20028;-78
2023/02/02 03:04:16;;;;;;;10.35;5.75;;;0.10;99.90;;;;;;5027753;28;20033;-78
2023/02/02 03:07:23;;;;;;;11.55;7.35;;;0.10;99.90;;;;;;5014068;28;20044;-78
2023/02/02 03:09:50;;;;;;;9.93;6.63;;;0.20;99.90;;;;;;5014791;28;20046;-82
2023/02/02 03:12:16;;;;;;;11.20;6.00;;;0.20;99.90;;;;;;5015176;28;20029;-82
2023/02/02 03:14:42;;;;;;;12.68;5.95;;;0.20;99.90;;;;;;5014029;28;20501;-82
2023/02/02 03:17:07;;;;;;;12.73;5.00;;;0.20;99.90;;;;;;5013805;28;20054;-78
2023/02/02 03:19:33;;;;;;;15.60;6.03;;;0.20;99.90;;;;;;5015187;28;20037;-81
2023/02/02 03:21:59;;;;;;;11.10;5.60;;;0.20;99.90;;;;;;5013685;28;20550;-78
2023/02/02 03:24:24;;;;;;;10.05;5.60;;;0.20;99.90;;;;;;5013759;28;20068;-78
2023/02/02 03:26:50;;;;;;;10.35;4.97;;;0.20;99.90;;;;;;5013590;28;20058;-82
2023/02/02 03:29:16;;;;;;;12.98;5.35;;;0.20;99.90;;;;;;5013692;28;20037;-79
2023/02/02 03:31:42;;;;;;;11.80;5.30;;;0.20;99.90;;;;;;5013668;28;20026;-78
2023/02/02 03:34:08;;;;;;;8.48;4.93;;;0.20;99.90;;;;;;5014596;28;20042;-78
2023/02/02 03:36:33;;;;;;;11.13;5.07;;;0.20;99.90;;;;;;5013499;28;20029;-82
2023/02/02 03:38:59;;;;;;;18.38;6.28;;;0.20;99.90;;;;;;5014987;28;20026;-78
2023/02/02 03:41:24;;;;;;;19.63;7.88;;;0.20;99.90;;;;;;5014582;28;20018;-78
2023/02/02 03:43:50;;;;;;;15.55;5.35;;;0.20;99.90;;;;;;5013361;28;20065;-78
2023/02/02 03:46:16;;;;;;;21.25;5.43;;;0.20;99.90;;;;;;5013147;28;20030;-82
2023/02/02 03:48:41;;;;;;;10.45;6.00;;;0.20;99.90;;;;;;5013238;28;20463;-78
2023/02/02 03:51:13;;;;;;;10.25;5.68;;;0.20;99.90;;;;;;5013195;28;20028;-78
2023/02/02 03:53:43;;;;;;;13.65;4.75;;;0.20;99.90;;;;;;5013317;28;20093;-78
2023/02/02 03:56:08;;;;;;;10.35;4.97;;;0.20;99.90;;;;;;5013672;28;20037;-82
2023/02/02 03:58:34;;;;;;;15.35;6.13;;;0.20;99.90;;;;;;5013105;28;20105;-78
2023/02/02 04:01:05;;;;;;;12.80;5.43;;;0.20;99.90;;;;;;5013061;28;20033;-78
2023/02/02 04:03:31;;;;;;;11.27;5.35;;;0.20;99.90;;;;;;5013167;28;20018;-81
2023/02/02 04:05:57;;;;;;;13.35;5.63;;;0.20;99.90;;;;;;5013149;28;20022;-82
2023/02/02 04:08:22;;;;;;;13.80;5.40;;;0.20;99.90;;;;;;5012882;28;20372;-82
2023/02/02 04:10:48;;;;;;;11.38;6.00;;;0.20;99.90;;;;;;5012881;28;20061;-78
2023/02/02 04:13:13;;;;;;;14.57;5.55;;;0.20;99.90;;;;;;5012939;28;20451;-82
2023/02/02 04:15:39;;;;;;;9.48;4.55;;;0.20;99.90;;;;;;5012859;28;20545;-82
2023/02/02 04:18:05;;;;;;;8.60;4.40;;;0.20;99.90;;;;;;5014020;28;20024;-78
2023/02/02 04:20:30;;;;;;;12.13;6.22;;;0.30;99.90;;;;;;5012795;28;20038;-79
2023/02/02 04:22:56;;;;;;;11.60;4.82;;;0.30;99.90;;;;;;5012785;28;20104;-82
2023/02/02 04:25:22;;;;;;;10.38;4.75;;;0.20;99.90;;;;;;5012547;28;20068;-79
2023/02/02 04:28:03;;;;;;;10.90;5.25;;;0.30;99.90;;;;;;5070688;28;20395;-78
2023/02/02 04:30:28;;;;;;;13.48;5.25;;;0.30;99.90;;;;;;5070740;28;20083;-82
2023/02/02 04:32:55;;;;;;;11.60;6.03;;;0.30;99.90;;;;;;5069406;28;20048;-81
2023/02/02 04:35:20;;;;;;;14.35;6.75;;;0.30;99.90;;;;;;5069220;28;20067;-81
2023/02/02 04:37:46;;;;;;;17.40;6.97;;;0.30;99.90;;;;;;5069347;28;20016;-81
2023/02/02 04:40:12;;;;;;;17.40;6.78;;;0.20;99.90;;;;;;5070525;28;20066;-77
2023/02/02 04:42:38;;;;;;;15.85;6.97;;;0.30;99.90;;;;;;5069170;28;20432;-81
2023/02/02 04:45:04;;;;;;;15.23;7.43;;;0.30;99.90;;;;;;5069142;28;20029;-82
2023/02/02 04:47:29;;;;;;;18.25;7.25;;;0.20;99.90;;;;;;5068940;28;20075;-81
2023/02/02 04:49:55;;;;;;;13.98;6.90;;;0.30;99.90;;;;;;5069132;28;20067;-81
2023/02/02 04:52:21;;;;;;;16.38;7.82;;;0.30;99.90;;;;;;5069021;28;20122;-81
2023/02/02 04:54:46;;;;;;;12.07;6.88;;;0.30;99.90;;;;;;5069036;28;20025;-79
2023/02/02 04:57:12;;;;;;;14.63;7.15;;;0.30;99.90;;;;;;5068899;28;20210;-81
2023/02/02 04:59:37;;;;;;;13.88;6.65;;;0.20;99.90;;;;;;5068900;28;20064;-81
2023/02/02 05:02:03;;;;;;;18.10;6.72;;;0.30;99.90;;;;;;5068824;28;20422;-81
2023/02/02 05:04:28;;;;;;;17.80;7.25;;;0.20;99.90;;;;;;5068750;28;20094;-81
2023/02/02 05:06:54;;;;;;;15.15;7.78;;;0.20;99.90;;;;;;5068607;28;20071;-78
2023/02/02 05:09:20;;;;;;;18.42;7.07;;;0.20;99.90;;;;;;5070071;28;20029;-81
2023/02/02 05:11:45;;;;;;;19.88;6.88;;;0.20;99.90;;;;;;5068654;28;20025;-78
2023/02/02 05:14:11;;;;;;;16.10;7.35;;;0.20;99.90;;;;;;5068503;28;20436;-81
2023/02/02 05:16:38;;;;;;;17.00;7.88;;;0.20;99.90;;;;;;5068433;28;20405;-81
2023/02/02 05:19:04;;;;;;;16.88;8.02;;;0.20;99.90;;;;;;5069627;28;20107;-81
2023/02/02 05:21:30;;;;;;;15.00;8.55;;;0.20;99.90;;;;;;5068373;28;20064;-78
2023/02/02 05:23:56;;;;;;;21.35;9.90;;;0.20;99.90;;;;;;5068252;28;20028;-78
2023/02/02 05:26:24;;;;;;;23.83;11.90;;;0.20;99.90;;;;;;5067636;28;20058;-78
2023/02/02 05:28:49;;;;;;;45.95;15.63;;;0.20;99.90;;;;;;5069394;28;20450;-81
2023/02/02 05:31:15;;;;;;;28.27;13.80;;;0.20;99.90;;;;;;5068112;28;20115;-78
2023/02/02 05:33:41;;;;;;;30.00;13.40;;;0.20;99.90;;;;;;5068119;28;20025;-81
2023/02/02 05:36:07;;;;;;;27.02;10.88;;;0.20;99.90;;;;;;5067826;28;20020;-78
2023/02/02 05:38:32;;;;;;;25.92;10.95;;;0.20;99.90;;;;;;5060674;28;20032;-78
2023/02/02 05:40:58;;;;;;;29.13;12.32;;;0.20;99.90;;;;;;5055938;28;20151;-78
2023/02/02 05:43:26;;;;;;;21.60;12.07;;;0.20;99.90;;;;;;5054814;28;20021;-78
2023/02/02 05:45:51;;;;;;;31.83;15.05;;;0.10;99.90;;;;;;5054563;28;20028;-78
2023/02/02 05:48:17;;;;;;;26.35;12.85;;;0.20;99.90;;;;;;5055824;28;20025;-81
2023/02/02 05:51:05;;;;;;;23.13;12.20;;;0.20;99.90;;;;;;5055837;28;20029;-78
2023/02/02 05:53:31;;;;;;;37.95;16.67;;;0.20;99.90;;;;;;5054701;28;20413;-78
2023/02/02 05:55:57;;;;;;;25.63;13.40;;;0.10;99.90;;;;;;5054463;28;20111;-78
2023/02/02 05:58:23;;;;;;;33.35;16.52;;;0.20;99.90;;;;;;5055761;28;20482;-78
2023/02/02 06:00:48;;;;;;;35.67;15.35;;;0.20;99.90;;;;;;5054408;28;20021;-78
2023/02/02 06:03:14;;;;;;;38.75;16.25;;;0.10;99.90;;;;;;5054344;28;20461;-80
2023/02/02 06:05:40;;;;;;;30.08;16.13;;;0.20;99.90;;;;;;5054246;28;20013;-78
2023/02/02 06:08:05;;;;;;;30.95;14.20;;;0.20;99.90;;;;;;5055510;28;20025;-81
2023/02/02 06:10:31;;;;;;;35.53;15.85;;;0.20;99.90;;;;;;5054143;28;20071;-81
2023/02/02 06:12:57;;;;;;;36.40;14.73;;;0.20;99.90;;;;;;5054281;28;20060;-81
2023/02/02 06:15:23;;;;;;;32.10;13.05;;;0.20;99.90;;;;;;5054170;28;20032;-78
2023/02/02 06:17:48;;;;;;;29.77;13.13;;;0.20;99.90;;;;;;5054117;28;20481;-78
2023/02/02 06:20:14;;;;;;;26.20;13.75;;;0.20;99.90;;;;;;5053893;28;20028;-79
2023/02/02 06:22:41;;;;;;;29.65;13.52;;;0.20;99.90;;;;;;5054073;28;20474;-78
2023/02/02 06:25:07;;;;;;;29.17;13.30;;;0.20;99.90;;;;;;5053705;28;20021;-78
2023/02/02 06:27:33;;;;;;;25.83;13.40;;;0.20;99.90;;;;;;5053655;28;20052;-81
2023/02/02 06:29:59;;;;;;;25.85;11.65;;;0.20;99.90;;;;;;5053830;28;20584;-81
2023/02/02 06:32:24;;;;;;;28.20;11.52;;;0.20;99.90;;;;;;5053833;28;20402;-80
2023/02/02 06:34:50;;;;;;;20.63;10.65;;;0.20;99.90;;;;;;5053761;28;20071;-82
2023/02/02 06:37:15;;;;;;;26.20;10.63;;;0.20;99.90;;;;;;5053711;28;20028;-82
2023/02/02 06:39:41;;;;;;;20.67;9.80;;;0.20;99.90;;;;;;5053712;28;20017;-81
2023/02/02 06:42:06;;;;;;;19.80;10.15;;;0.20;99.90;;;;;;5053313;28;20025;-78
2023/02/02 06:44:32;;;;;;;21.15;9.55;;;0.20;99.90;;;;;;5053685;28;20028;-83
2023/02/02 06:46:57;;;;;;;25.63;9.60;;;0.20;99.90;;;;;;5053164;28;20091;-81
2023/02/02 06:49:23;;;;;;;19.42;8.63;;;0.20;99.90;;;;;;5053199;28;20025;-77
2023/02/02 06:51:49;;;;;;;19.73;8.65;;;0.20;99.90;;;;;;5067134;28;20035;-83
2023/02/02 06:54:14;;;;;;;13.20;6.85;;;0.20;99.90;;;;;;5073429;28;20138;-81
2023/02/02 06:56:40;;;;;;;17.23;7.80;;;0.30;99.90;;;;;;5073048;28;20021;-78
2023/02/02 06:59:06;;;;;;;17.10;7.22;;;0.20;99.90;;;;;;5073109;28;20024;-78
2023/02/02 07:01:31;;;;;;;12.27;6.72;;;0.30;99.90;;;;;;5073057;28;20033;-83
2023/02/02 07:03:57;;;;;;;11.40;5.72;;;0.20;99.90;;;;;;5056706;28;20025;-82
2023/02/02 07:06:25;;;;;;;15.50;6.38;;;0.30;99.90;;;;;;5052171;28;20072;-83
2023/02/02 07:08:51;;;;;;;18.02;6.55;;;0.30;99.90;;;;;;5052373;28;20116;-82
2023/02/02 07:11:18;;;;;;;17.88;8.45;;;0.30;99.90;;;;;;5061882;28;20024;-81
2023/02/02 07:13:47;;;;;;;20.90;7.82;;;0.20;99.90;;;;;;5059728;28;20053;-83
2023/02/02 07:16:14;;;;;;;14.02;7.63;;;0.30;99.90;;;;;;5052243;28;20124;-77
2023/02/02 07:18:42;;;;;;;18.40;8.27;;;0.20;99.90;;;;;;5052516;28;20029;-78
2023/02/02 07:21:08;;;;;;;23.98;10.23;;;0.20;99.90;;;;;;5052724;28;20152;-81
2023/02/02 07:23:34;;;;;;;18.05;9.35;;;0.20;99.90;;;;;;5054221;28;20020;-78
2023/02/02 07:26:04;;;;;;;20.05;10.18;;;0.20;99.90;;;;;;5053863;28;20049;-82
2023/02/02 07:28:30;;;;;;;20.33;10.13;;;0.10;99.90;;;;;;5054125;28;20092;-82
2023/02/02 07:30:56;;;;;;;19.92;9.90;;;0.10;99.90;;;;;;5049296;28;20025;-82
2023/02/02 07:33:22;;;;;;;17.05;9.25;;;0.10;99.90;;;;;;5049058;28;20013;-77
2023/02/02 07:35:47;;;;;;;15.95;8.43;;;0.10;99.90;;;;;;5050318;28;20027;-82
2023/02/02 07:38:13;;;;;;;14.98;8.10;;;0.10;99.90;;;;;;5048948;28;20125;-82
2023/02/02 07:40:39;;;;;;;14.77;8.10;;;0.10;99.90;;;;;;5048887;28;20525;-82
2023/02/02 07:43:04;;;;;;;13.35;8.35;;;0.00;99.90;;;;;;5049137;28;20044;-82
2023/02/02 07:45:30;;;;;;;15.75;9.45;;;0.00;99.90;;;;;;5051274;28;20032;-78
2023/02/02 07:47:57;;;;;;;16.98;9.32;;;0.00;99.90;;;;;;5052503;28;20033;-78
2023/02/02 07:50:24;;;;;;;18.83;9.38;;;0.10;99.90;;;;;;5052291;28;20408;-82
2023/02/02 07:52:50;;;;;;;20.95;11.30;;;0.00;99.90;;;;;;5052401;28;20478;-78
2023/02/02 07:55:15;;;;;;;20.15;11.75;;;0.00;99.90;;;;;;5052258;28;20039;-82
2023/02/02 07:57:41;;;;;;;15.18;9.00;;;0.00;99.90;;;;;;5052466;28;20533;-83
2023/02/02 08:00:08;;;;;;;14.50;7.68;;;0.00;99.90;;;;;;5052548;28;20025;-78
2023/02/02 08:02:34;;;;;;;18.08;8.25;;;0.00;99.90;;;;;;5053474;28;20040;-78
2023/02/02 08:04:59;;;;;;;11.82;8.43;;;0.00;99.90;;;;;;5052238;28;20017;-78
2023/02/02 08:07:25;;;;;;;11.63;7.75;;;0.00;99.90;;;;;;5052292;28;20479;-82
2023/02/02 08:09:50;;;;;;;12.05;7.97;;;0.00;99.90;;;;;;5053527;28;20040;-79
2023/02/02 08:12:17;;;;;;;17.00;8.30;;;0.00;99.90;;;;;;5053620;28;20029;-82
2023/02/02 08:14:42;;;;;;;12.75;7.00;;;0.00;99.90;;;;;;5052174;28;20017;-78
2023/02/02 08:17:08;;;;;;;16.40;8.40;;;0.00;99.90;;;;;;5052052;28;20031;-82
2023/02/02 08:19:33;;;;;;;17.75;10.15;;;0.00;99.90;;;;;;5052130;28;20090;-83
2023/02/02 08:21:59;;;;;;;21.67;11.27;;;0.00;99.90;;;;;;5052065;28;20470;-78
2023/02/02 08:24:25;;;;;;;22.42;9.85;;;0.00;99.90;;;;;;5052115;28;20386;-78
2023/02/02 08:26:50;;;;;;;17.80;9.48;;;0.10;99.90;;;;;;5051646;28;20049;-82
2023/02/02 08:29:16;;;;;;;17.13;9.45;;;0.00;99.90;;;;;;5052029;28;20023;-82
2023/02/02 08:31:43;;;;;;;16.02;9.13;;;0.00;99.90;;;;;;5052095;28;20071;-83
2023/02/02 08:34:11;;;;;;;16.90;10.18;;;0.00;99.90;;;;;;5051973;28;20024;-82
2023/02/02 08:36:36;;;;;;;15.93;9.95;;;0.10;99.90;;;;;;5051893;28;20071;-78
2023/02/02 08:39:07;;;;;;;20.02;9.90;;;0.10;99.90;;;;;;5051847;28;20037;-78
2023/02/02 08:41:33;;;;;;;24.00;10.60;;;0.10;99.90;;;;;;5052010;28;20052;-82
2023/02/02 08:43:59;;;;;;;18.95;10.27;;;0.10;99.90;;;;;;5051891;28;20485;-78
2023/02/02 08:46:25;;;;;;;20.92;12.10;;;0.10;99.90;;;;;;5053029;28;20490;-82
2023/02/02 08:48:50;;;;;;;22.45;12.60;;;0.10;99.90;;;;;;5051792;28;20428;-78
2023/02/02 08:51:18;;;;;;;21.10;12.10;;;0.10;99.90;;;;;;5052099;28;20021;-82
2023/02/02 08:53:44;;;;;;;24.40;12.18;;;0.10;99.90;;;;;;5051849;28;20036;-83
2023/02/02 08:56:12;;;;;;;22.00;12.95;;;0.10;99.90;;;;;;5051641;28;20021;-83
2023/02/02 08:58:38;;;;;;;23.42;15.05;;;0.10;99.90;;;;;;5053078;28;20021;-82
2023/02/02 09:01:14;;;;;;;26.55;14.52;;;0.20;99.90;;;;;;5051866;28;20023;-79
2023/02/02 09:03:40;;;;;;;27.15;15.73;;;0.20;99.90;;;;;;5051562;28;20021;-78
2023/02/02 09:06:18;;;;;;;33.83;18.05;;;0.20;99.90;;;;;;5052869;28;20378;-82
2023/02/02 09:08:44;;;;;;;37.42;19.08;;;0.10;99.90;;;;;;5051652;28;20490;-82
2023/02/02 09:11:13;;;;;;;35.13;18.00;;;0.20;99.90;;;;;;5051483;28;20021;-78
2023/02/02 09:13:40;;;;;;;34.42;19.27;;;0.20;99.90;;;;;;5053412;28;20035;-82
2023/02/02 09:16:08;;;;;;;41.55;19.88;;;0.20;99.90;;;;;;5056582;28;20025;-79
2023/02/02 09:18:34;;;;;;;37.95;19.98;;;0.20;99.90;;;;;;5055420;28;20115;-82
2023/02/02 09:21:04;;;;;;;38.75;20.33;;;0.30;99.90;;;;;;5056447;28;20104;-82
2023/02/02 09:23:32;;;;;;;38.05;21.05;;;0.30;99.90;;;;;;5055246;28;20025;-78
2023/02/02 09:26:15;;;;;;;45.08;22.83;;;0.30;99.90;;;;;;5054878;28;20061;-82
2023/02/02 09:28:43;;;;;;;50.40;21.67;;;0.30;99.90;;;;;;5055162;28;20032;-82
2023/02/02 09:31:10;;;;;;;47.70;22.13;;;0.20;99.90;;;;;;5055066;28;20086;-82
2023/02/02 09:33:36;;;;;;;42.85;20.52;;;0.30;99.90;;;;;;5055179;28;20028;-78
2023/02/02 09:36:06;;;;;;;43.17;21.48;;;0.20;99.90;;;;;;5054928;28;20021;-79
2023/02/02 09:38:32;;;;;;;51.08;22.50;;;0.20;99.90;;;;;;5055020;28;20036;-82
2023/02/02 09:40:58;;;;;;;41.83;21.58;;;0.30;99.90;;;;;;5054786;28;20017;-78
2023/02/02 09:43:44;;;;;;;37.92;18.98;;;0.30;99.90;;;;;;5054851;28;20052;-78
2023/02/02 09:46:25;;;;;;;28.08;15.25;;;0.30;99.90;;;;;;5054675;28;20057;-82
2023/02/02 09:49:03;;;;;;;26.65;13.52;;;0.30;99.90;;;;;;5034943;28;20078;-78
2023/02/02 09:51:36;;;;;;;18.25;10.52;;;0.30;99.90;;;;;;5038333;28;20030;-78
2023/02/02 09:54:18;;;;;;;24.63;12.10;;;0.20;99.90;;;;;;5056131;28;20508;-82
2023/02/02 09:56:49;;;;;;;13.30;8.98;;;0.30;99.90;;;;;;5054702;28;20025;-83
2023/02/02 09:59:26;;;;;;;11.43;7.97;;;0.30;99.90;;;;;;5054539;28;20021;-82
2023/02/02 10:01:56;;;;;;;12.55;8.82;;;0.30;99.90;;;;;;5055914;28;20096;-82
2023/02/02 10:04:30;;;;;;;10.20;6.20;;;0.30;99.90;;;;;;5054496;28;20489;-82
2023/02/02 10:06:59;;;;;;;11.40;6.10;;;0.30;99.90;;;;;;5055541;28;20489;-78
2023/02/02 10:09:38;;;;;;;10.35;7.00;;;0.30;99.90;;;;;;5054470;28;20067;-83
2023/02/02 10:12:32;;;;;;;11.18;6.43;;;0.40;99.90;;;;;;5054308;28;20040;-82
2023/02/02 10:15:11;;;;;;;10.55;6.82;;;0.40;99.90;;;;;;5055542;28;20505;-82
2023/02/02 10:17:46;;;;;;;10.43;6.25;;;0.40;99.90;;;;;;5054204;28;20025;-82
2023/02/02 10:20:34;;;;;;;8.93;6.22;;;0.40;99.90;;;;;;5054275;28;20505;-78
2023/02/02 10:23:11;;;;;;;14.13;7.32;;;0.50;99.90;;;;;;5049088;28;20036;-78
2023/02/02 10:25:42;;;;;;;10.93;7.38;;;0.50;99.90;;;;;;5055055;28;20041;-82
2023/02/02 10:28:26;;;;;;;8.77;5.63;;;0.50;99.90;;;;;;5053864;28;20079;-82
2023/02/02 10:30:59;;;;;;;10.23;5.53;;;0.60;99.90;;;;;;5055330;28;20041;-82
2023/02/02 10:33:38;;;;;;;7.22;5.85;;;0.60;99.90;;;;;;5053900;28;20417;-82
2023/02/02 10:36:23;;;;;;;14.10;7.07;;;0.70;99.90;;;;;;5055213;28;20457;-78
2023/02/02 10:38:57;;;;;;;5.93;4.70;;;0.70;99.90;;;;;;5055172;28;20417;-82
2023/02/02 10:41:43;;;;;;;8.05;5.50;;;0.80;99.90;;;;;;5055099;28;20537;-78
2023/02/02 10:44:42;;;;;;;11.38;5.40;;;0.80;99.90;;;;;;5055033;28;20359;-78
2023/02/02 10:47:11;;;;;;;10.15;5.53;;;0.80;99.90;;;;;;5053681;28;20032;-82
2023/02/02 10:49:38;;;;;;;8.02;4.72;;;0.90;99.90;;;;;;5054911;28;20025;-78
2023/02/02 10:52:10;;;;;;;8.23;4.60;;;1.00;99.90;;;;;;5053524;28;20021;-82
2023/02/02 10:55:00;;;;;;;5.23;4.03;;;1.00;99.90;;;;;;5053618;28;20064;-82
2023/02/02 10:57:32;;;;;;;13.32;6.25;;;1.10;99.90;;;;;;5053472;28;20017;-83
2023/02/02 11:00:27;;;;;;;15.45;8.55;;;1.10;99.90;;;;;;5053330;28;20025;-79
2023/02/02 11:02:52;;;;;;;13.77;7.07;;;1.20;99.90;;;;;;5053421;28;20135;-78
2023/02/02 11:08:42;;;;;;;6.93;4.50;;;1.20;99.90;;;;;;5054663;28;20130;-78
2023/02/02 11:11:15;;;;;;;7.93;4.47;;;1.30;99.90;;;;;;5050140;28;20045;-78
2023/02/02 11:13:47;;;;;;;13.23;6.25;;;1.20;99.90;;;;;;5053375;28;20025;-78
2023/02/02 11:16:15;;;;;;;12.45;5.90;;;1.20;99.90;;;;;;5054422;28;20033;-78
2023/02/02 11:18:45;;;;;;;6.03;4.38;;;1.30;99.90;;;;;;5053089;28;20092;-82
2023/02/02 11:21:30;;;;;;;3.85;2.90;;;1.30;99.90;;;;;;5053004;28;20029;-79
2023/02/02 11:24:26;;;;;;;4.78;3.28;;;1.30;99.90;;;;;;5054255;28;20049;-78
2023/02/02 11:27:22;;;;;;;8.82;3.92;;;1.30;99.90;;;;;;5025895;28;20045;-82
2023/02/02 11:29:52;;;;;;;14.07;6.82;;;1.30;99.90;;;;;;5032123;28;20039;-78
2023/02/02 11:32:23;;;;;;;7.00;3.45;;;1.40;99.90;;;;;;5052903;28;20390;-82
2023/02/02 11:35:03;;;;;;;15.18;6.07;;;1.30;99.90;;;;;;5052790;28;20033;-78
2023/02/02 11:37:30;;;;;;;5.30;3.65;;;1.30;99.90;;;;;;5053631;28;20028;-78
2023/02/02 11:40:39;;;;;;;12.82;5.35;;;1.40;99.90;;;;;;5052725;28;20098;-78
2023/02/02 11:43:21;;;;;;;8.90;4.90;;;1.30;99.90;;;;;;5015318;28;20064;-78
2023/02/02 11:45:56;;;;;;;9.55;5.13;;;1.30;99.90;;;;;;5015280;28;20026;-78
2023/02/02 11:48:29;;;;;;;6.35;3.60;;;1.30;99.90;;;;;;5046523;28;20190;-82
2023/02/02 11:50:56;;;;;;;22.33;13.10;;;1.30;99.90;;;;;;5052490;28;20478;-78
2023/02/02 11:53:24;;;;;;;36.42;15.45;;;1.40;99.90;;;;;;5052513;28;20035;-82
2023/02/02 11:55:51;;;;;;;44.53;18.25;;;1.40;99.90;;;;;;5053581;28;20104;-78
2023/02/02 11:58:23;;;;;;;21.38;7.65;;;1.40;99.90;;;;;;5052317;28;20032;-82
2023/02/02 12:00:53;;;;;;;14.77;6.70;;;1.30;99.90;;;;;;5052356;28;20049;-82
2023/02/02 12:03:30;;;;;;;30.30;13.90;;;1.20;99.90;;;;;;5052295;28;20596;-78
2023/02/02 12:05:58;;;;;;;52.17;18.38;;;1.30;99.90;;;;;;5053717;28;20420;-78
2023/02/02 12:08:24;;;;;;;46.17;16.63;;;1.30;99.90;;;;;;5052148;28;20523;-82
2023/02/02 12:10:58;;;;;;;35.95;13.05;;;1.30;99.90;;;;;;5053481;28;20455;-82
2023/02/02 12:14:15;;;;;;;28.42;10.98;;;1.30;99.90;;;;;;5052211;28;20079;-82
2023/02/02 12:17:18;;;;;;;12.60;6.13;;;1.30;99.90;;;;;;5043860;28;20040;-78
2023/02/02 12:20:00;;;;;;;9.38;4.43;;;1.30;99.90;;;;;;5052038;28;20041;-77
2023/02/02 12:22:34;;;;;;;5.18;3.25;;;1.30;99.90;;;;;;5052178;28;20417;-78
2023/02/02 12:25:29;;;;;;;6.15;4.57;;;1.30;99.90;;;;;;5052096;28;20548;-78
2023/02/02 12:28:17;;;;;;;15.25;6.35;;;1.30;99.90;;;;;;5051787;28;20456;-81
2023/02/02 12:31:11;;;;;;;15.38;5.95;;;1.40;99.90;;;;;;5053434;28;20474;-82
2023/02/02 12:34:01;;;;;;;56.13;21.73;;;1.40;99.90;;;;;;5052032;28;20053;-78
2023/02/02 12:36:42;;;;;;;5.93;5.03;;;1.40;99.90;;;;;;5051976;28;20075;-78
2023/02/02 12:39:22;;;;;;;653.38;264.50;;;1.40;99.90;;;;;;5051915;28;20390;-78
2023/02/02 12:42:06;;;;;;;326.52;136.90;;;1.50;99.90;;;;;;5051908;28;20029;-78
2023/02/02 12:44:53;;;;;;;44.25;21.98;;;1.60;99.90;;;;;;5053280;28;20027;-82
2023/02/02 12:47:42;;;;;;;32.03;15.60;;;1.60;99.90;;;;;;5053292;28;20433;-82
2023/02/02 12:50:34;;;;;;;274.25;101.78;;;1.50;99.90;;;;;;5057140;28;20092;-78
2023/02/02 12:53:21;;;;;;;32.80;16.83;;;1.50;99.90;;;;;;5055978;28;20056;-82
2023/02/02 12:55:50;;;;;;;10.07;6.43;;;1.60;99.90;;;;;;5055663;28;20033;-78
2023/02/02 12:58:24;;;;;;;45.65;18.60;;;1.60;99.90;;;;;;5055583;28;20481;-82
2023/02/02 13:01:04;;;;;;;19.25;8.15;;;1.70;99.90;;;;;;5055522;28;20041;-81
2023/02/02 13:03:49;;;;;;;12.55;5.57;;;1.70;99.90;;;;;;5055650;28;20047;-82
2023/02/02 13:06:37;;;;;;;37.30;16.92;;;1.70;99.90;;;;;;5055675;28;20541;-78
2023/02/02 13:09:08;;;;;;;9.23;5.30;;;1.80;99.90;;;;;;5055543;28;20028;-82
2023/02/02 13:12:14;;;;;;;77.55;30.65;;;1.70;99.90;;;;;;5055501;28;20025;-82
2023/02/02 13:14:50;;;;;;;69.28;26.65;;;1.70;99.90;;;;;;5018145;28;20022;-77
2023/02/02 13:17:27;;;;;;;10.73;5.78;;;1.80;99.90;;;;;;5017936;28;20124;-82